Time;durP1;ratioP1;P1;durP2;ratioP2;P2;SDS_P1;SDS_P2;PMS_P1;PMS_P2;Temp;Humidity;BMP_temperature;BMP_pressure;BME280_temperature;BME280_humidity;BME280_pressure;Samples;Min_cycle;Max_cycle;Signal;HPM_P1;HPM_P2
2021/11/05 00:00:52;;;;;;;13.88;8.02;;;17.20;85.60;;;;;;5068784;28;20044;-59
2021/11/05 00:03:17;;;;;;;11.65;7.75;;;17.20;85.30;;;;;;5056837;28;20052;-59
2021/11/05 00:05:43;;;;;;;12.75;7.95;;;17.20;85.10;;;;;;5068259;28;20175;-58
2021/11/05 00:08:09;;;;;;;10.50;7.10;;;17.20;84.90;;;;;;5067622;28;20037;-58
2021/11/05 00:10:38;;;;;;;16.38;8.02;;;17.20;84.80;;;;;;5068668;28;20094;-59
2021/11/05 00:13:04;;;;;;;12.15;7.60;;;17.20;84.50;;;;;;5068901;28;20028;-59
2021/11/05 00:15:30;;;;;;;17.05;8.88;;;17.20;84.30;;;;;;5068009;28;20114;-67
2021/11/05 00:17:56;;;;;;;13.80;8.32;;;17.20;84.20;;;;;;5068631;28;20625;-67
2021/11/05 00:20:21;;;;;;;14.07;9.07;;;17.20;84.10;;;;;;5067822;28;20048;-67
2021/11/05 00:22:47;;;;;;;14.73;8.75;;;17.20;83.90;;;;;;5068454;28;20068;-66
2021/11/05 00:25:13;;;;;;;13.95;8.88;;;17.20;83.70;;;;;;5067099;28;20132;-66
2021/11/05 00:27:40;;;;;;;14.10;8.38;;;17.20;83.60;;;;;;5069121;28;20123;-66
2021/11/05 00:30:07;;;;;;;14.55;8.90;;;17.20;83.50;;;;;;5083479;28;20040;-66
2021/11/05 00:32:34;;;;;;;13.80;8.35;;;17.20;83.20;;;;;;5067741;28;20087;-66
2021/11/05 00:35:00;;;;;;;15.88;9.48;;;17.20;83.00;;;;;;5069614;28;20495;-65
2021/11/05 00:37:25;;;;;;;16.15;9.43;;;17.20;82.90;;;;;;5081779;28;20040;-66
2021/11/05 00:39:51;;;;;;;15.32;9.05;;;17.20;83.30;;;;;;5067916;28;20036;-66
2021/11/05 00:42:17;;;;;;;15.68;8.93;;;17.20;82.70;;;;;;5069654;28;20844;-66
2021/11/05 00:44:42;;;;;;;13.43;8.60;;;17.20;82.70;;;;;;5067522;28;20533;-66
2021/11/05 00:47:09;;;;;;;15.05;9.40;;;17.20;82.60;;;;;;5067653;28;20128;-66
2021/11/05 00:49:35;;;;;;;17.48;8.90;;;17.20;82.40;;;;;;5068508;28;20043;-66
2021/11/05 00:52:01;;;;;;;13.75;8.60;;;17.20;82.20;;;;;;5055670;28;20048;-66
2021/11/05 00:54:27;;;;;;;15.38;8.52;;;17.10;82.20;;;;;;5068139;28;20050;-67
2021/11/05 00:56:52;;;;;;;12.77;8.23;;;17.10;82.10;;;;;;5069467;28;20063;-66
2021/11/05 00:59:18;;;;;;;15.48;10.00;;;17.10;82.00;;;;;;5071268;28;20045;-66
2021/11/05 01:01:44;;;;;;;15.70;9.82;;;17.10;82.10;;;;;;5072458;28;20040;-67
2021/11/05 01:04:09;;;;;;;18.20;10.73;;;17.00;82.10;;;;;;5071552;28;20055;-66
2021/11/05 01:06:35;;;;;;;19.40;10.55;;;17.00;82.20;;;;;;5072503;28;20042;-66
2021/11/05 01:09:02;;;;;;;18.92;9.68;;;17.00;82.20;;;;;;5070736;28;20485;-66
2021/11/05 01:11:28;;;;;;;15.57;9.88;;;17.00;82.20;;;;;;5072625;28;20047;-66
2021/11/05 01:13:54;;;;;;;16.70;10.32;;;17.00;82.30;;;;;;5070540;28;20052;-66
2021/11/05 01:16:20;;;;;;;15.88;10.27;;;17.00;82.20;;;;;;5085543;28;20473;-67
2021/11/05 01:18:47;;;;;;;15.25;10.63;;;16.90;82.20;;;;;;5070395;28;20051;-66
2021/11/05 01:21:14;;;;;;;18.45;10.27;;;16.90;81.90;;;;;;5071159;28;20093;-66
2021/11/05 01:23:40;;;;;;;16.05;9.63;;;16.80;81.90;;;;;;5069403;28;20393;-66
2021/11/05 01:26:06;;;;;;;16.83;9.40;;;16.80;82.20;;;;;;5073390;28;20043;-67
2021/11/05 01:28:31;;;;;;;17.00;9.88;;;16.80;82.10;;;;;;5072400;28;20068;-66
2021/11/05 01:30:57;;;;;;;18.48;10.45;;;16.80;82.10;;;;;;5070128;28;20079;-66
2021/11/05 01:33:23;;;;;;;15.43;10.27;;;16.80;82.20;;;;;;5070107;28;20029;-66
2021/11/05 01:35:49;;;;;;;14.98;9.75;;;16.70;82.00;;;;;;5072074;28;20123;-66
2021/11/05 01:38:15;;;;;;;14.13;8.70;;;16.70;81.90;;;;;;5071777;28;20044;-66
2021/11/05 01:40:42;;;;;;;14.57;9.40;;;16.70;82.00;;;;;;5071264;28;20033;-65
2021/11/05 01:43:09;;;;;;;12.65;8.32;;;16.70;82.20;;;;;;5060114;28;20467;-66
2021/11/05 01:45:35;;;;;;;16.30;9.07;;;16.70;82.00;;;;;;5070997;28;20437;-66
2021/11/05 01:48:01;;;;;;;13.50;9.25;;;16.70;82.40;;;;;;5062095;28;20035;-65
2021/11/05 01:50:27;;;;;;;15.82;8.65;;;16.70;82.10;;;;;;5071071;28;20431;-66
2021/11/05 01:52:55;;;;;;;15.02;9.23;;;16.60;82.20;;;;;;5070358;28;20143;-66
2021/11/05 01:55:22;;;;;;;15.82;9.75;;;16.60;82.30;;;;;;5071844;28;20143;-66
2021/11/05 01:57:48;;;;;;;17.52;10.13;;;16.70;82.50;;;;;;5072296;28;20123;-66
2021/11/05 02:00:17;;;;;;;17.27;9.48;;;16.70;82.50;;;;;;5069764;28;20170;-66
2021/11/05 02:02:43;;;;;;;13.15;7.30;;;16.70;82.40;;;;;;5070101;28;20102;-66
2021/11/05 02:05:10;;;;;;;15.50;9.20;;;16.70;81.90;;;;;;5070523;28;20546;-66
2021/11/05 02:07:37;;;;;;;13.32;8.57;;;16.60;81.30;;;;;;5070209;28;21012;-66
2021/11/05 02:10:09;;;;;;;14.88;8.43;;;16.50;82.00;;;;;;5070939;28;20108;-66
2021/11/05 02:12:35;;;;;;;12.05;7.03;;;16.40;82.40;;;;;;5072344;28;20149;-65
2021/11/05 02:15:01;;;;;;;10.88;7.45;;;16.40;82.20;;;;;;5070388;28;20036;-65
2021/11/05 02:17:27;;;;;;;12.23;7.10;;;16.40;82.70;;;;;;5071230;28;20048;-65
2021/11/05 02:19:56;;;;;;;13.43;7.63;;;16.40;82.30;;;;;;5068920;28;20032;-66
2021/11/05 02:22:22;;;;;;;12.50;8.05;;;16.50;82.30;;;;;;5071098;28;20037;-66
2021/11/05 02:24:47;;;;;;;11.52;6.97;;;16.50;82.20;;;;;;5070592;28;21477;-65
2021/11/05 02:27:13;;;;;;;12.20;7.70;;;16.50;82.10;;;;;;5072212;28;20036;-65
2021/11/05 02:29:39;;;;;;;14.02;7.70;;;16.50;82.10;;;;;;5069918;28;20037;-65
2021/11/05 02:32:05;;;;;;;12.18;6.38;;;16.50;82.40;;;;;;5068019;28;20439;-65
2021/11/05 02:34:32;;;;;;;12.48;7.70;;;16.50;82.30;;;;;;5069450;28;20044;-65
2021/11/05 02:36:59;;;;;;;12.23;7.20;;;16.50;82.10;;;;;;5067830;28;20032;-66
2021/11/05 02:39:25;;;;;;;10.50;6.13;;;16.50;81.80;;;;;;5068989;28;20044;-65
2021/11/05 02:41:53;;;;;;;11.65;5.75;;;16.60;81.70;;;;;;5071464;28;20387;-66
2021/11/05 02:44:19;;;;;;;10.40;6.03;;;16.60;81.40;;;;;;5070453;28;20451;-66
2021/11/05 02:46:45;;;;;;;10.38;5.85;;;16.60;81.40;;;;;;5068628;28;20032;-65
2021/11/05 02:49:16;;;;;;;8.38;5.30;;;16.60;81.30;;;;;;5066746;28;20044;-66
2021/11/05 02:51:44;;;;;;;8.82;5.03;;;16.60;80.90;;;;;;5070751;28;20032;-65
2021/11/05 02:54:12;;;;;;;9.38;4.95;;;16.60;80.90;;;;;;5068956;28;20495;-65
2021/11/05 02:56:38;;;;;;;11.32;5.15;;;16.50;81.00;;;;;;5070333;28;20059;-65
2021/11/05 02:59:05;;;;;;;9.27;4.93;;;16.40;80.90;;;;;;5069468;28;20057;-65
2021/11/05 03:01:32;;;;;;;8.38;5.05;;;16.40;81.40;;;;;;5068379;28;20403;-65
2021/11/05 03:04:04;;;;;;;11.15;5.53;;;16.50;81.50;;;;;;5068523;28;20043;-65
2021/11/05 03:06:35;;;;;;;9.00;4.93;;;16.40;81.40;;;;;;5070680;28;20139;-65
2021/11/05 03:09:13;;;;;;;9.25;5.47;;;16.50;81.50;;;;;;5067888;28;20043;-64
2021/11/05 03:11:39;;;;;;;8.48;4.80;;;16.50;81.40;;;;;;5070585;28;20042;-65
2021/11/05 03:14:06;;;;;;;8.23;4.80;;;16.50;81.20;;;;;;5069567;28;20476;-65
2021/11/05 03:16:33;;;;;;;9.02;4.97;;;16.50;80.90;;;;;;5067604;28;20087;-65
2021/11/05 03:19:00;;;;;;;8.57;4.70;;;16.50;80.90;;;;;;5068836;28;20368;-65
2021/11/05 03:21:26;;;;;;;6.22;3.28;;;16.50;80.80;;;;;;5069541;28;20447;-66
2021/11/05 03:23:52;;;;;;;7.93;4.40;;;16.50;79.70;;;;;;5068673;28;20055;-65
2021/11/05 03:26:18;;;;;;;5.45;2.97;;;16.40;79.30;;;;;;5069767;28;20039;-65
2021/11/05 03:28:43;;;;;;;8.73;4.50;;;16.30;78.80;;;;;;5070665;28;20048;-65
2021/11/05 03:31:09;;;;;;;6.65;3.70;;;16.30;79.70;;;;;;5069175;28;20068;-65
2021/11/05 03:33:35;;;;;;;7.00;4.22;;;16.20;79.80;;;;;;5069173;28;20040;-66
2021/11/05 03:36:01;;;;;;;7.75;4.05;;;16.10;80.50;;;;;;5068382;28;20036;-65
2021/11/05 03:38:26;;;;;;;7.57;3.88;;;16.10;80.60;;;;;;5051463;28;20761;-58
2021/11/05 03:40:52;;;;;;;9.95;4.13;;;16.10;80.90;;;;;;5068649;28;20028;-57
2021/11/05 03:43:18;;;;;;;7.53;3.47;;;16.10;81.30;;;;;;5069890;28;20028;-58
2021/11/05 03:45:44;;;;;;;8.25;3.97;;;16.10;80.70;;;;;;5065882;28;20381;-58
2021/11/05 03:48:10;;;;;;;8.15;4.50;;;16.10;80.70;;;;;;5063930;28;20796;-58
2021/11/05 03:50:35;;;;;;;6.03;3.58;;;16.20;80.80;;;;;;5068677;28;20504;-57
2021/11/05 03:53:01;;;;;;;7.70;3.65;;;16.30;80.60;;;;;;5068449;28;20531;-58
2021/11/05 03:55:27;;;;;;;6.75;3.08;;;16.30;80.40;;;;;;5067741;28;20524;-57
2021/11/05 03:57:53;;;;;;;8.30;3.90;;;16.30;80.20;;;;;;5067085;28;20127;-58
2021/11/05 04:00:20;;;;;;;6.70;3.25;;;16.30;80.00;;;;;;5069490;28;20039;-59
2021/11/05 04:02:46;;;;;;;7.90;2.97;;;16.40;80.00;;;;;;5068504;28;20047;-58
2021/11/05 04:05:12;;;;;;;6.78;3.53;;;16.40;79.70;;;;;;5064980;28;20123;-59
2021/11/05 04:07:38;;;;;;;6.10;3.17;;;16.40;79.60;;;;;;5067297;28;20169;-59
2021/11/05 04:10:05;;;;;;;6.82;3.50;;;16.50;79.50;;;;;;5058431;28;20067;-59
2021/11/05 04:12:30;;;;;;;6.15;3.13;;;16.40;79.30;;;;;;5067539;28;20050;-59
2021/11/05 04:14:56;;;;;;;5.70;3.00;;;16.40;79.40;;;;;;5069664;28;20052;-59
2021/11/05 04:17:22;;;;;;;5.30;2.65;;;16.40;79.50;;;;;;5068959;28;20553;-59
2021/11/05 04:19:47;;;;;;;5.55;2.63;;;16.40;79.00;;;;;;5085868;28;20168;-59
2021/11/05 04:22:13;;;;;;;4.97;2.38;;;16.30;78.50;;;;;;5069693;28;20044;-59
2021/11/05 04:24:39;;;;;;;4.50;2.60;;;16.30;79.20;;;;;;5068259;28;20122;-59
2021/11/05 04:27:05;;;;;;;5.07;2.40;;;16.30;79.50;;;;;;5070613;28;20032;-59
2021/11/05 04:29:31;;;;;;;4.30;2.08;;;16.30;79.60;;;;;;5072115;28;20123;-59
2021/11/05 04:31:58;;;;;;;4.38;2.13;;;16.30;79.50;;;;;;5056928;28;20082;-59
2021/11/05 04:34:24;;;;;;;4.82;2.10;;;16.30;79.50;;;;;;5071744;28;20116;-59
2021/11/05 04:36:49;;;;;;;5.38;2.00;;;16.30;79.40;;;;;;5071675;28;20142;-66
2021/11/05 04:39:17;;;;;;;7.55;2.13;;;16.30;79.30;;;;;;5073175;28;20041;-67
2021/11/05 04:41:44;;;;;;;6.07;2.00;;;16.40;79.10;;;;;;5072074;28;20376;-59
2021/11/05 04:44:10;;;;;;;4.00;2.00;;;16.40;79.00;;;;;;5074083;28;20036;-59
2021/11/05 04:46:35;;;;;;;4.75;2.13;;;16.30;78.70;;;;;;5070549;28;20067;-59
2021/11/05 04:49:01;;;;;;;6.93;1.42;;;16.30;79.20;;;;;;5071305;28;20048;-62
2021/11/05 04:51:27;;;;;;;3.30;1.05;;;16.20;77.00;;;;;;5072307;28;20040;-62
2021/11/05 04:53:53;;;;;;;2.80;0.88;;;15.80;75.10;;;;;;5088008;28;20521;-62
2021/11/05 04:56:19;;;;;;;5.63;1.00;;;15.20;74.80;;;;;;5070778;28;20052;-62
2021/11/05 04:58:44;;;;;;;1.92;1.00;;;14.60;75.70;;;;;;5070913;28;20052;-62
2021/11/05 05:01:10;;;;;;;3.20;1.20;;;14.20;76.70;;;;;;5070315;28;20036;-62
2021/11/05 05:03:37;;;;;;;7.20;1.15;;;13.70;77.70;;;;;;5059989;28;20029;-62
2021/11/05 05:06:02;;;;;;;6.10;1.48;;;13.40;78.90;;;;;;5073647;28;20048;-63
2021/11/05 05:08:28;;;;;;;4.00;1.27;;;13.20;79.80;;;;;;5069263;28;20063;-62
2021/11/05 05:10:54;;;;;;;3.83;1.90;;;12.90;80.60;;;;;;5088006;28;20036;-62
2021/11/05 05:13:20;;;;;;;2.80;1.10;;;12.70;81.70;;;;;;5069947;28;20164;-62
2021/11/05 05:15:46;;;;;;;3.95;1.52;;;12.60;82.50;;;;;;5073202;28;20394;-62
2021/11/05 05:18:15;;;;;;;5.35;1.98;;;12.50;82.50;;;;;;5071644;28;20040;-63
2021/11/05 05:20:43;;;;;;;4.72;1.20;;;12.30;83.40;;;;;;5071755;28;20076;-64
2021/11/05 05:23:10;;;;;;;2.35;1.10;;;12.20;83.00;;;;;;5072996;28;20443;-61
2021/11/05 05:25:36;;;;;;;3.53;1.17;;;12.00;83.70;;;;;;5074462;28;20431;-62
2021/11/05 05:28:03;;;;;;;4.35;1.02;;;11.80;83.90;;;;;;5071197;28;20041;-61
2021/11/05 05:30:28;;;;;;;4.32;1.15;;;11.60;84.70;;;;;;5087659;28;20044;-61
2021/11/05 05:32:54;;;;;;;5.00;1.38;;;11.50;85.50;;;;;;5069322;28;20473;-61
2021/11/05 05:35:21;;;;;;;4.80;1.15;;;11.40;86.00;;;;;;5058798;28;20524;-61
2021/11/05 05:37:48;;;;;;;3.25;0.80;;;11.20;85.40;;;;;;5071154;28;20961;-62
2021/11/05 05:40:14;;;;;;;4.10;1.10;;;11.10;85.70;;;;;;5071027;28;20040;-62
2021/11/05 05:42:41;;;;;;;3.33;1.10;;;11.00;86.40;;;;;;5071978;28;20040;-62
2021/11/05 05:45:08;;;;;;;3.17;1.00;;;10.90;87.10;;;;;;5074445;28;20104;-62
2021/11/05 05:47:35;;;;;;;4.72;0.82;;;10.80;87.70;;;;;;5070519;28;20051;-63
2021/11/05 05:50:03;;;;;;;4.07;0.90;;;10.80;88.10;;;;;;5069483;28;20055;-62
2021/11/05 05:52:29;;;;;;;4.32;1.00;;;10.80;88.40;;;;;;5070008;28;20049;-61
2021/11/05 05:54:55;;;;;;;3.08;1.25;;;10.70;88.80;;;;;;5072867;28;20622;-61
2021/11/05 05:57:21;;;;;;;2.58;1.38;;;10.70;89.60;;;;;;5054312;28;20036;-61
2021/11/05 05:59:47;;;;;;;3.88;1.40;;;10.70;89.70;;;;;;5071375;28;20361;-61
2021/11/05 06:02:12;;;;;;;2.78;0.90;;;10.70;90.10;;;;;;5070269;28;20039;-61
2021/11/05 06:04:38;;;;;;;3.90;1.90;;;10.70;90.20;;;;;;5073072;28;20123;-61
2021/11/05 06:07:04;;;;;;;4.78;1.02;;;10.70;90.60;;;;;;5069026;28;20047;-61
2021/11/05 06:09:30;;;;;;;3.13;1.00;;;10.80;90.80;;;;;;5086434;28;20048;-61
2021/11/05 06:11:56;;;;;;;4.20;1.10;;;10.80;90.50;;;;;;5069988;28;20387;-62
2021/11/05 06:14:22;;;;;;;7.53;3.15;;;10.80;90.50;;;;;;5087577;28;20040;-60
2021/11/05 06:16:47;;;;;;;5.45;2.45;;;10.70;90.30;;;;;;5071498;28;20550;-61
2021/11/05 06:19:13;;;;;;;3.53;1.30;;;10.60;90.40;;;;;;5068875;28;20127;-62
2021/11/05 06:21:39;;;;;;;4.70;1.27;;;10.50;90.50;;;;;;5069973;28;20036;-62
2021/11/05 06:24:05;;;;;;;4.05;1.35;;;10.40;90.40;;;;;;5089162;28;20155;-61
2021/11/05 06:26:30;;;;;;;4.72;1.90;;;10.30;90.50;;;;;;5070886;28;20033;-67
2021/11/05 06:29:01;;;;;;;3.97;1.60;;;10.30;90.80;;;;;;5067995;28;20044;-68
2021/11/05 06:31:27;;;;;;;4.13;1.65;;;10.20;90.80;;;;;;5068567;28;20045;-68
2021/11/05 06:33:52;;;;;;;4.25;1.15;;;10.20;91.30;;;;;;5066703;28;20090;-68
2021/11/05 06:36:20;;;;;;;6.30;1.20;;;10.20;91.40;;;;;;5071050;28;20397;-69
2021/11/05 06:38:46;;;;;;;2.85;0.70;;;10.10;91.10;;;;;;5060867;28;20051;-68
2021/11/05 06:41:13;;;;;;;2.70;0.70;;;10.10;91.10;;;;;;5071820;28;20036;-69
2021/11/05 06:43:39;;;;;;;2.97;0.80;;;10.10;91.20;;;;;;5072129;28;20049;-68
2021/11/05 06:46:05;;;;;;;6.07;0.93;;;10.00;91.30;;;;;;5068829;28;20420;-69
2021/11/05 06:48:33;;;;;;;3.25;1.10;;;9.90;91.40;;;;;;5072266;28;20088;-69
2021/11/05 06:50:59;;;;;;;6.03;1.52;;;9.90;91.50;;;;;;5070408;28;20113;-68
2021/11/05 06:53:25;;;;;;;3.08;1.38;;;9.80;91.60;;;;;;5068869;28;20071;-69
2021/11/05 06:55:51;;;;;;;5.63;1.00;;;9.80;91.90;;;;;;5069314;28;20052;-67
2021/11/05 06:58:16;;;;;;;5.40;1.50;;;9.90;92.30;;;;;;5070000;28;20054;-68
2021/11/05 07:00:42;;;;;;;6.93;1.50;;;10.00;92.40;;;;;;5054490;28;20365;-66
2021/11/05 07:03:08;;;;;;;5.57;1.15;;;10.20;92.30;;;;;;5068703;28;20480;-66
2021/11/05 07:05:34;;;;;;;5.30;1.33;;;10.40;92.20;;;;;;5085463;28;20052;-63
2021/11/05 07:08:01;;;;;;;2.63;0.90;;;10.70;92.10;;;;;;5067860;28;20067;-61
2021/11/05 07:10:26;;;;;;;5.75;1.02;;;11.10;91.90;;;;;;5070412;28;20036;-61
2021/11/05 07:12:52;;;;;;;1.88;1.00;;;11.30;91.40;;;;;;5086527;28;20511;-62
2021/11/05 07:15:20;;;;;;;2.88;1.02;;;11.40;91.20;;;;;;5068637;28;20051;-61
2021/11/05 07:17:46;;;;;;;4.72;1.33;;;11.40;91.00;;;;;;5071496;28;20123;-68
2021/11/05 07:20:14;;;;;;;4.00;1.23;;;11.50;90.90;;;;;;5071479;28;20039;-69
2021/11/05 07:22:41;;;;;;;3.90;1.25;;;11.40;90.90;;;;;;5070371;28;20852;-68
2021/11/05 07:25:09;;;;;;;7.18;1.10;;;11.40;91.00;;;;;;5069487;28;20385;-68
2021/11/05 07:27:35;;;;;;;4.68;0.90;;;11.30;91.00;;;;;;5056125;28;20389;-68
2021/11/05 07:30:00;;;;;;;3.38;1.25;;;11.30;91.20;;;;;;5070765;28;20051;-69
2021/11/05 07:32:26;;;;;;;4.00;1.25;;;11.30;91.30;;;;;;5086519;28;20024;-68
2021/11/05 07:34:54;;;;;;;4.82;1.23;;;11.30;91.30;;;;;;5068109;28;20167;-69
2021/11/05 07:37:21;;;;;;;5.88;1.00;;;11.30;91.30;;;;;;5071056;28;20040;-68
2021/11/05 07:39:48;;;;;;;5.50;1.75;;;11.30;91.50;;;;;;5070189;28;20392;-68
2021/11/05 07:42:14;;;;;;;11.32;3.95;;;11.20;91.50;;;;;;5069588;28;20155;-69
2021/11/05 07:44:41;;;;;;;5.68;2.00;;;11.30;91.70;;;;;;5067337;28;20047;-68
2021/11/05 07:47:07;;;;;;;7.25;0.90;;;11.30;91.90;;;;;;5069786;28;20043;-68
2021/11/05 07:49:33;;;;;;;9.20;0.95;;;11.30;91.80;;;;;;5086043;28;20078;-68
2021/11/05 07:52:00;;;;;;;4.80;1.10;;;11.40;91.70;;;;;;5085255;28;20048;-68
2021/11/05 07:54:26;;;;;;;4.43;1.10;;;11.40;91.70;;;;;;5050910;28;20125;-68
2021/11/05 07:56:52;;;;;;;5.18;1.13;;;11.30;91.80;;;;;;5040285;28;20048;-63
2021/11/05 07:59:17;;;;;;;6.07;1.00;;;11.40;91.70;;;;;;5071402;28;20040;-62
2021/11/05 08:01:43;;;;;;;4.00;1.05;;;11.40;91.70;;;;;;5058922;28;20044;-60
2021/11/05 08:04:09;;;;;;;3.53;0.80;;;11.40;91.60;;;;;;5067630;28;20619;-62
2021/11/05 08:06:35;;;;;;;4.90;1.00;;;11.40;91.50;;;;;;5070978;28;20044;-64
2021/11/05 08:09:02;;;;;;;2.65;0.75;;;11.50;91.50;;;;;;5071241;28;20032;-62
2021/11/05 08:11:29;;;;;;;2.58;1.60;;;11.60;91.70;;;;;;5073062;28;20464;-62
2021/11/05 08:13:56;;;;;;;5.20;1.30;;;11.60;91.60;;;;;;5072922;28;20115;-62
2021/11/05 08:16:23;;;;;;;5.68;1.30;;;11.60;91.40;;;;;;5089454;28;20342;-62
2021/11/05 08:18:48;;;;;;;5.88;0.95;;;11.70;91.70;;;;;;5045511;28;20041;-62
2021/11/05 08:21:14;;;;;;;8.38;0.75;;;11.70;91.40;;;;;;5071990;28;20102;-63
2021/11/05 08:23:40;;;;;;;4.55;0.90;;;11.80;91.10;;;;;;5070792;28;20842;-63
2021/11/05 08:26:06;;;;;;;3.38;0.68;;;11.80;91.00;;;;;;5072532;28;20098;-63
2021/11/05 08:28:33;;;;;;;4.85;0.77;;;11.80;90.60;;;;;;5069098;28;20048;-63
2021/11/05 08:31:00;;;;;;;7.50;1.13;;;11.80;90.70;;;;;;5070701;28;20048;-62
2021/11/05 08:33:26;;;;;;;2.20;0.82;;;11.90;90.70;;;;;;5070043;28;20812;-62
2021/11/05 08:35:52;;;;;;;7.80;1.10;;;12.00;90.50;;;;;;5072039;28;20040;-61
2021/11/05 08:38:20;;;;;;;6.63;0.98;;;12.00;90.40;;;;;;5072559;28;20052;-62
2021/11/05 08:40:48;;;;;;;7.28;1.00;;;12.10;90.30;;;;;;5068928;28;20093;-62
2021/11/05 08:43:17;;;;;;;4.65;0.80;;;12.10;90.20;;;;;;5069832;28;20028;-60
2021/11/05 08:45:42;;;;;;;2.45;0.57;;;12.20;90.50;;;;;;5070661;28;21977;-62
2021/11/05 08:48:09;;;;;;;2.55;0.73;;;12.30;90.50;;;;;;5070538;28;20119;-61
2021/11/05 08:50:35;;;;;;;4.85;1.02;;;12.40;90.30;;;;;;5073190;28;20032;-61
2021/11/05 08:53:03;;;;;;;5.68;1.13;;;12.40;90.10;;;;;;5073908;28;20105;-59
2021/11/05 08:55:29;;;;;;;2.80;0.57;;;12.40;89.80;;;;;;5088099;28;20052;-60
2021/11/05 08:57:55;;;;;;;2.90;0.95;;;12.50;89.30;;;;;;5071783;28;20051;-60
2021/11/05 09:00:24;;;;;;;2.50;0.45;;;12.50;89.10;;;;;;5071441;28;20075;-63
2021/11/05 09:02:51;;;;;;;3.65;0.60;;;12.40;88.40;;;;;;5070580;28;20420;-60
2021/11/05 09:05:18;;;;;;;2.22;0.75;;;12.40;88.70;;;;;;5071428;28;20582;-60
2021/11/05 09:07:44;;;;;;;3.75;0.70;;;12.40;88.60;;;;;;5070441;28;20099;-62
2021/11/05 09:10:10;;;;;;;4.32;0.90;;;12.50;88.70;;;;;;5073370;28;20044;-60
2021/11/05 09:12:38;;;;;;;1.42;0.50;;;12.50;88.40;;;;;;5073035;28;20059;-60
2021/11/05 09:15:06;;;;;;;6.65;1.58;;;12.60;88.20;;;;;;5070465;28;20102;-60
2021/11/05 09:17:32;;;;;;;3.15;0.43;;;12.60;87.30;;;;;;5069982;28;20101;-60
2021/11/05 09:19:58;;;;;;;1.95;0.60;;;12.70;87.50;;;;;;5070738;28;20047;-62
2021/11/05 09:22:24;;;;;;;2.80;1.02;;;12.80;87.20;;;;;;5059250;28;20047;-62
2021/11/05 09:24:50;;;;;;;1.83;0.30;;;12.90;86.30;;;;;;5071239;28;20102;-62
2021/11/05 09:27:17;;;;;;;1.95;1.05;;;13.00;85.30;;;;;;5085526;28;20028;-61
2021/11/05 09:29:43;;;;;;;3.22;0.47;;;13.10;84.70;;;;;;5072608;28;20381;-62
2021/11/05 09:32:09;;;;;;;2.30;0.50;;;13.30;84.60;;;;;;5071759;28;20066;-61
2021/11/05 09:34:34;;;;;;;1.45;0.40;;;13.40;84.20;;;;;;5070204;28;20077;-62
2021/11/05 09:37:02;;;;;;;1.83;0.43;;;13.60;83.70;;;;;;5071886;28;20047;-63
2021/11/05 09:39:30;;;;;;;2.42;0.50;;;13.70;83.20;;;;;;5071375;28;20075;-61
2021/11/05 09:41:56;;;;;;;1.45;0.40;;;13.80;82.70;;;;;;5069194;28;20108;-62
2021/11/05 09:44:22;;;;;;;2.08;0.38;;;14.00;82.60;;;;;;5049682;28;20033;-61
2021/11/05 09:46:48;;;;;;;2.45;0.30;;;14.10;81.50;;;;;;5070487;28;20045;-62
2021/11/05 09:49:15;;;;;;;2.60;0.50;;;14.10;81.10;;;;;;5070375;28;20070;-61
2021/11/05 09:51:42;;;;;;;2.33;0.70;;;14.10;80.80;;;;;;5084101;28;20037;-62
2021/11/05 09:54:09;;;;;;;2.92;0.47;;;14.10;80.90;;;;;;5059414;28;20912;-62
2021/11/05 09:56:35;;;;;;;4.00;0.95;;;14.10;80.40;;;;;;5069476;28;20086;-59
2021/11/05 09:59:01;;;;;;;6.95;1.05;;;14.10;82.80;;;;;;5070352;28;20431;-58
2021/11/05 10:01:27;;;;;;;8.95;1.15;;;14.30;86.80;;;;;;5071340;28;20032;-58
2021/11/05 10:03:52;;;;;;;4.75;1.30;;;14.60;87.30;;;;;;5070078;28;20047;-60
2021/11/05 10:06:23;;;;;;;6.50;1.50;;;15.00;87.20;;;;;;5071604;28;20036;-61
2021/11/05 10:08:53;;;;;;;6.25;1.90;;;15.40;86.70;;;;;;5086980;28;20517;-59
2021/11/05 10:11:25;;;;;;;7.75;2.35;;;15.70;87.00;;;;;;5057776;28;20131;-59
2021/11/05 10:13:54;;;;;;;12.30;2.42;;;15.90;87.80;;;;;;5071492;28;20198;-66
2021/11/05 10:16:22;;;;;;;12.48;2.25;;;16.10;88.40;;;;;;5070459;28;20416;-61
2021/11/05 10:19:00;;;;;;;6.07;0.82;;;16.20;88.60;;;;;;5065964;28;20619;-61
2021/11/05 10:21:26;;;;;;;4.80;0.77;;;16.20;85.50;;;;;;5072423;28;20036;-61
2021/11/05 10:24:06;;;;;;;12.85;1.92;;;16.10;84.20;;;;;;5070665;28;20036;-72
2021/11/05 10:26:33;;;;;;;6.65;1.33;;;15.90;85.60;;;;;;5071882;28;20572;-66
2021/11/05 10:29:00;;;;;;;4.15;2.10;;;15.80;86.20;;;;;;5087970;28;20050;-67
2021/11/05 10:31:27;;;;;;;6.28;1.10;;;15.90;87.10;;;;;;5081598;28;20129;-66
2021/11/05 10:33:53;;;;;;;4.90;1.38;;;16.00;85.50;;;;;;5069401;28;20048;-65
2021/11/05 10:36:21;;;;;;;4.85;1.60;;;16.10;85.20;;;;;;5072324;28;20102;-66
2021/11/05 10:38:52;;;;;;;4.07;1.52;;;15.90;84.50;;;;;;5071166;28;20066;-67
2021/11/05 10:41:20;;;;;;;2.88;1.60;;;15.80;85.30;;;;;;5068447;28;20098;-65
2021/11/05 10:43:53;;;;;;;4.05;0.88;;;16.00;85.40;;;;;;5071272;28;20032;-60
2021/11/05 10:46:34;;;;;;;4.55;1.50;;;16.10;83.50;;;;;;5073673;28;20032;-59
2021/11/05 10:49:06;;;;;;;5.75;2.03;;;16.20;83.80;;;;;;5067436;28;20047;-58
2021/11/05 10:51:34;;;;;;;4.53;1.70;;;16.30;84.80;;;;;;5070628;28;20032;-58
2021/11/05 10:54:02;;;;;;;4.07;1.65;;;16.40;83.90;;;;;;5070064;28;20043;-59
2021/11/05 10:56:30;;;;;;;3.75;1.50;;;16.50;83.50;;;;;;5071662;28;20082;-58
2021/11/05 10:59:14;;;;;;;3.15;1.40;;;16.50;83.70;;;;;;5057062;28;20105;-59
2021/11/05 11:01:42;;;;;;;6.22;2.13;;;16.60;83.40;;;;;;5070880;28;20226;-59
2021/11/05 11:04:11;;;;;;;4.30;1.55;;;16.70;83.70;;;;;;5070395;28;20036;-58
2021/11/05 11:06:43;;;;;;;3.20;1.27;;;16.80;83.80;;;;;;5069464;28;20037;-59
2021/11/05 11:09:19;;;;;;;5.45;1.75;;;16.80;83.10;;;;;;5070431;28;20116;-58
2021/11/05 11:11:47;;;;;;;3.63;1.02;;;16.70;83.20;;;;;;5070343;28;20167;-58
2021/11/05 11:14:29;;;;;;;6.05;1.40;;;16.70;82.70;;;;;;5070217;28;20043;-60
2021/11/05 11:17:00;;;;;;;3.88;1.27;;;16.70;83.10;;;;;;5070168;28;20132;-59
2021/11/05 11:19:27;;;;;;;4.45;1.60;;;16.70;82.80;;;;;;5069502;28;20066;-59
2021/11/05 11:22:00;;;;;;;2.42;1.33;;;16.80;82.70;;;;;;5070555;28;20032;-59
2021/11/05 11:24:28;;;;;;;;;;;16.70;83.10;;;;;;5071403;28;20027;-59
2021/11/05 11:26:54;;;;;;;3.30;1.58;;;16.70;83.10;;;;;;5050547;28;20664;-59
2021/11/05 11:29:22;;;;;;;3.08;1.30;;;16.70;84.10;;;;;;5069496;28;20087;-59
2021/11/05 11:31:50;;;;;;;4.05;0.90;;;16.90;84.30;;;;;;5070340;28;20044;-60
2021/11/05 11:34:16;;;;;;;4.10;1.02;;;17.00;82.50;;;;;;5071597;28;20480;-60
2021/11/05 11:36:50;;;;;;;3.33;0.80;;;17.00;81.40;;;;;;5067756;28;20178;-61
2021/11/05 11:39:19;;;;;;;4.82;1.05;;;17.00;80.90;;;;;;5068679;28;20036;-61
2021/11/05 11:41:46;;;;;;;3.03;0.77;;;16.70;81.20;;;;;;5068424;28;20048;-61
2021/11/05 11:44:21;;;;;;;3.92;1.27;;;16.30;81.70;;;;;;5058006;28;20040;-62
2021/11/05 11:47:00;;;;;;;3.35;0.80;;;16.00;83.50;;;;;;5067398;28;20466;-62
2021/11/05 11:49:47;;;;;;;6.60;1.42;;;15.90;84.90;;;;;;5056567;28;20041;-61
2021/11/05 11:52:19;;;;;;;4.20;1.17;;;15.90;85.40;;;;;;5068856;28;20157;-61
2021/11/05 11:54:51;;;;;;;5.57;1.92;;;16.10;85.70;;;;;;5085585;28;20047;-60
2021/11/05 11:57:31;;;;;;;4.13;1.50;;;16.30;85.60;;;;;;5085541;28;20044;-61
2021/11/05 12:00:29;;;;;;;3.75;1.20;;;16.40;85.30;;;;;;5070983;28;20068;-61
2021/11/05 12:03:14;;;;;;;6.13;1.58;;;16.70;85.20;;;;;;5040835;28;20052;-61
2021/11/05 12:05:48;;;;;;;6.55;2.08;;;17.00;84.80;;;;;;5067038;28;20032;-62
2021/11/05 12:08:36;;;;;;;4.32;1.10;;;17.20;83.80;;;;;;5069767;28;20148;-61
2021/11/05 12:11:09;;;;;;;2.95;1.23;;;17.40;83.10;;;;;;5068873;28;20045;-61
2021/11/05 12:13:35;;;;;;;3.78;0.82;;;17.60;82.60;;;;;;5068675;28;20047;-62
2021/11/05 12:16:18;;;;;;;3.25;1.25;;;17.60;81.70;;;;;;5068424;28;20090;-61
2021/11/05 12:21:23;;;;;;;5.55;1.35;;;17.70;81.80;;;;;;5068072;28;20041;-61
2021/11/05 12:24:19;;;;;;;3.15;1.00;;;17.70;81.30;;;;;;5070077;28;20037;-61
2021/11/05 12:26:52;;;;;;;5.22;1.60;;;17.80;81.40;;;;;;5085547;28;20119;-62
2021/11/05 12:29:33;;;;;;;5.57;1.30;;;17.80;80.50;;;;;;5057213;28;20055;-61
2021/11/05 12:32:16;;;;;;;4.63;1.60;;;17.80;80.00;;;;;;5069213;28;20052;-62
2021/11/05 12:35:17;;;;;;;4.25;1.40;;;17.80;80.60;;;;;;5063479;28;20051;-61
2021/11/05 12:38:09;;;;;;;5.00;1.08;;;17.80;80.80;;;;;;5072311;28;20659;-61
2021/11/05 12:40:54;;;;;;;4.50;1.60;;;17.90;80.70;;;;;;5067672;28;20145;-61
2021/11/05 12:43:23;;;;;;;3.30;1.05;;;18.00;80.60;;;;;;5069627;28;20044;-61
2021/11/05 12:46:16;;;;;;;3.58;1.02;;;18.00;79.70;;;;;;5056073;28;20038;-61
2021/11/05 12:48:47;;;;;;;4.65;1.40;;;18.10;80.00;;;;;;5068480;28;20046;-62
2021/11/05 12:51:28;;;;;;;4.55;1.35;;;18.20;79.70;;;;;;5067658;28;20055;-60